createdAt,value
2022-11-12T00:00:19.991Z,64.23
2022-11-12T00:03:05.724Z,64.29
2022-11-12T00:05:53.516Z,65.60
2022-11-12T00:08:40.508Z,65.14
2022-11-12T00:11:26.535Z,63.79
2022-11-12T00:14:13.364Z,63.48
2022-11-12T00:16:59.218Z,63.64
2022-11-12T00:19:45.501Z,64.69
2022-11-12T00:22:31.498Z,65.19
2022-11-12T00:25:17.417Z,66.20
2022-11-12T00:28:05.103Z,65.65
2022-11-12T00:30:50.832Z,64.24
2022-11-12T00:33:40.071Z,63.64
2022-11-12T00:36:26.013Z,64.12
2022-11-12T00:39:16.099Z,64.12
2022-11-12T00:42:01.999Z,64.52
2022-11-12T00:44:50.077Z,65.54
2022-11-12T00:47:35.983Z,64.99
2022-11-12T00:50:21.776Z,64.04
2022-11-12T00:53:07.752Z,63.52
2022-11-12T00:55:53.210Z,63.92
2022-11-12T00:58:38.847Z,64.78
2022-11-12T01:01:25.190Z,65.21
2022-11-12T01:04:11.349Z,65.85
2022-11-12T01:06:57.433Z,65.55
2022-11-12T01:09:43.152Z,64.29
2022-11-12T01:12:31.522Z,63.82
2022-11-12T01:15:16.975Z,63.96
2022-11-12T01:18:04.322Z,64.40
2022-11-12T01:20:50.813Z,64.93
2022-11-12T01:23:38.755Z,65.63
2022-11-12T01:26:24.408Z,65.90
2022-11-12T01:29:10.786Z,64.49
2022-11-12T01:31:57.248Z,64.12
2022-11-12T01:34:42.786Z,64.46
2022-11-12T01:37:28.607Z,64.83
2022-11-12T01:40:15.217Z,65.70
2022-11-12T01:43:01.096Z,66.04
2022-11-12T01:45:47.227Z,65.91
2022-11-12T01:48:34.628Z,64.16
2022-11-12T01:51:21.866Z,63.93
2022-11-12T01:54:09.308Z,64.28
2022-11-12T01:56:55.345Z,64.61
2022-11-12T01:59:43.550Z,65.70
2022-11-12T02:02:31.227Z,65.54
2022-11-12T02:05:17.369Z,64.18
2022-11-12T02:08:04.622Z,63.84
2022-11-12T02:10:50.613Z,64.18
2022-11-12T02:13:58.001Z,65.29
2022-11-12T02:16:44.964Z,65.18
2022-11-12T02:19:30.592Z,66.26
2022-11-12T02:22:16.415Z,65.70
2022-11-12T02:25:02.429Z,63.76
2022-11-12T02:27:51.907Z,63.22
2022-11-12T02:30:40.075Z,63.45
2022-11-12T02:33:25.789Z,63.98
2022-11-12T02:36:11.507Z,65.07
2022-11-12T02:38:57.524Z,65.63
2022-11-12T02:41:43.204Z,65.00
2022-11-12T02:44:29.616Z,63.53
2022-11-12T02:47:16.686Z,63.03
2022-11-12T02:50:02.829Z,63.44
2022-11-12T02:52:48.924Z,63.92
2022-11-12T02:55:35.279Z,64.64
2022-11-12T02:58:22.751Z,65.45
2022-11-12T03:01:08.392Z,65.03
2022-11-12T03:03:54.069Z,63.77
2022-11-12T03:06:40.694Z,63.40
2022-11-12T03:09:26.908Z,63.66
2022-11-12T03:12:12.856Z,64.15
2022-11-12T03:14:58.344Z,64.71
2022-11-12T03:17:44.574Z,65.45
2022-11-12T03:20:30.364Z,64.91
2022-11-12T03:23:16.690Z,63.84
2022-11-12T03:26:04.085Z,63.40
2022-11-12T03:28:51.654Z,63.46
2022-11-12T03:31:37.464Z,64.23
2022-11-12T03:34:23.943Z,64.62
2022-11-12T03:37:10.495Z,65.54
2022-11-12T03:39:58.575Z,64.97
2022-11-12T03:42:48.906Z,63.54
2022-11-12T03:45:35.271Z,63.54
2022-11-12T03:48:20.758Z,63.48
2022-11-12T03:51:06.917Z,64.07
2022-11-12T03:53:52.683Z,64.38
2022-11-12T03:56:38.950Z,65.50
2022-11-12T03:59:24.816Z,65.25
2022-11-12T04:02:14.572Z,63.36
2022-11-12T04:05:21.268Z,62.67
2022-11-12T04:08:36.407Z,62.97
2022-11-12T04:11:22.032Z,63.98
2022-11-12T04:14:07.977Z,64.39
2022-11-12T04:17:12.225Z,65.23
2022-11-12T04:20:16.840Z,64.29
2022-11-12T04:23:03.115Z,63.37
2022-11-12T04:26:07.921Z,63.08
2022-11-12T04:29:12.157Z,63.41
2022-11-12T04:31:57.903Z,63.87
2022-11-12T04:34:45.088Z,64.64
2022-11-12T04:37:44.457Z,65.37
2022-11-12T04:40:49.303Z,64.91
2022-11-12T04:43:53.677Z,63.27
2022-11-12T04:46:39.073Z,63.21
2022-11-12T04:49:24.651Z,63.62
2022-11-12T04:52:10.783Z,63.94
2022-11-12T04:54:57.089Z,64.75
2022-11-12T04:57:42.844Z,64.46
2022-11-12T05:00:29.358Z,63.18
2022-11-12T05:03:15.372Z,62.72
2022-11-12T05:06:04.809Z,63.64
2022-11-12T05:08:50.592Z,64.15
2022-11-12T05:11:36.105Z,65.11
2022-11-12T05:14:25.162Z,65.24
2022-11-12T05:17:11.965Z,65.19
2022-11-12T05:19:57.952Z,63.83
2022-11-12T05:22:58.979Z,63.35
2022-11-12T05:25:45.169Z,63.83
2022-11-12T05:28:30.744Z,64.62
2022-11-12T05:31:16.047Z,65.29
2022-11-12T05:34:06.565Z,66.12
2022-11-12T05:36:52.601Z,65.46
2022-11-12T05:39:39.319Z,63.63
2022-11-12T05:42:25.064Z,63.00
2022-11-12T05:45:11.544Z,63.22
2022-11-12T05:47:57.340Z,63.67
2022-11-12T05:51:06.149Z,64.04
2022-11-12T05:53:48.824Z,65.11
2022-11-12T05:56:35.674Z,64.63
2022-11-12T05:59:22.533Z,63.40
2022-11-12T06:02:08.354Z,63.12
2022-11-12T06:04:54.311Z,63.26
2022-11-12T06:07:40.895Z,63.98
2022-11-12T06:10:27.260Z,64.86
2022-11-12T06:13:13.153Z,65.78
2022-11-12T06:16:00.448Z,65.00
2022-11-12T06:18:46.233Z,63.69
2022-11-12T06:21:32.620Z,63.08
2022-11-12T06:24:19.244Z,63.43
2022-11-12T06:27:05.291Z,64.09
2022-11-12T06:29:51.468Z,64.97
2022-11-12T06:32:37.758Z,65.75
2022-11-12T06:35:23.721Z,65.16
2022-11-12T06:38:09.576Z,63.72
2022-11-12T06:40:56.012Z,63.25
2022-11-12T06:43:42.033Z,63.21
2022-11-12T06:46:27.615Z,63.69
2022-11-12T06:49:14.070Z,63.76
2022-11-12T06:52:00.060Z,65.10
2022-11-12T06:54:46.089Z,64.59
2022-11-12T06:57:32.186Z,62.71
2022-11-12T07:00:18.261Z,62.91
2022-11-12T07:03:07.687Z,63.31
2022-11-12T07:05:53.481Z,63.79
2022-11-12T07:08:39.537Z,64.11
2022-11-12T07:11:25.471Z,65.04
2022-11-12T07:14:16.320Z,64.12
2022-11-12T07:17:03.997Z,62.84
2022-11-12T07:19:49.605Z,62.22
2022-11-12T07:22:35.232Z,63.23
2022-11-12T07:25:21.701Z,63.22
2022-11-12T07:28:08.507Z,63.92
2022-11-12T07:31:20.564Z,64.49
2022-11-12T07:34:06.825Z,63.38
2022-11-12T07:36:52.528Z,62.37
2022-11-12T07:39:38.815Z,62.01
2022-11-12T07:42:24.453Z,62.36
2022-11-12T07:45:10.947Z,62.71
2022-11-12T07:47:59.329Z,63.60
2022-11-12T07:50:47.102Z,64.32
2022-11-12T07:53:34.086Z,63.67
2022-11-12T07:56:22.286Z,62.01
2022-11-12T07:59:08.287Z,61.62
2022-11-12T08:01:54.144Z,61.55
2022-11-12T08:04:40.211Z,62.19
2022-11-12T08:07:26.288Z,62.66
2022-11-12T08:10:12.448Z,63.78
2022-11-12T08:12:58.079Z,63.08
2022-11-12T08:15:49.454Z,61.56
2022-11-12T08:18:37.961Z,60.95
2022-11-12T08:21:23.589Z,61.47
2022-11-12T08:24:09.620Z,61.71
2022-11-12T08:26:55.337Z,62.53
2022-11-12T08:29:41.197Z,62.66
2022-11-12T08:32:27.302Z,63.68
2022-11-12T08:35:13.259Z,62.97
2022-11-12T08:38:00.157Z,61.01
2022-11-12T08:40:46.101Z,60.77
2022-11-12T08:43:32.531Z,60.93
2022-11-12T08:46:18.384Z,61.36
2022-11-12T08:49:04.105Z,62.00
2022-11-12T08:51:49.812Z,62.24
2022-11-12T08:54:35.721Z,63.06
2022-11-12T08:57:21.704Z,62.20
2022-11-12T09:00:07.873Z,60.60
2022-11-12T09:02:53.257Z,59.86
2022-11-12T09:05:40.872Z,59.99
2022-11-12T09:08:27.022Z,60.86
2022-11-12T09:11:13.834Z,61.07
2022-11-12T09:13:59.398Z,61.84
2022-11-12T09:16:46.491Z,62.69
2022-11-12T09:19:31.913Z,62.10
2022-11-12T09:22:17.682Z,60.05
2022-11-12T09:25:03.554Z,59.88
2022-11-12T09:27:49.451Z,60.05
2022-11-12T09:30:37.122Z,60.38
2022-11-12T09:33:29.463Z,61.01
2022-11-12T09:36:17.713Z,61.58
2022-11-12T09:39:05.281Z,62.31
2022-11-12T09:41:50.970Z,61.15
2022-11-12T09:44:39.425Z,59.44
2022-11-12T09:47:27.882Z,59.50
2022-11-12T09:50:22.865Z,59.82
2022-11-12T09:53:17.177Z,60.24
2022-11-12T09:56:06.396Z,60.70
2022-11-12T09:58:51.917Z,60.98
2022-11-12T10:01:43.930Z,62.05
2022-11-12T10:04:42.257Z,61.33
2022-11-12T10:07:34.075Z,59.59
2022-11-12T10:10:30.335Z,59.23
2022-11-12T10:13:35.004Z,59.38
2022-11-12T10:16:45.739Z,59.80
2022-11-12T10:20:01.415Z,60.85
2022-11-12T10:22:59.140Z,61.23
2022-11-12T10:25:46.762Z,62.03
2022-11-12T10:29:21.448Z,60.99
2022-11-12T10:32:10.640Z,59.01
2022-11-12T10:34:57.141Z,58.94
2022-11-12T10:38:01.214Z,59.45
2022-11-12T10:40:47.414Z,59.94
2022-11-12T10:43:33.196Z,60.16
2022-11-12T10:46:30.834Z,60.77
2022-11-12T10:49:16.426Z,61.58
2022-11-12T10:52:01.980Z,60.82
2022-11-12T10:54:53.916Z,58.86
2022-11-12T10:57:40.672Z,58.88
2022-11-12T11:00:26.578Z,59.48
2022-11-12T11:03:28.242Z,60.03
2022-11-12T11:06:14.415Z,60.82
2022-11-12T11:09:20.613Z,61.24
2022-11-12T11:12:19.094Z,62.18
2022-11-12T11:15:11.610Z,60.61
2022-11-12T11:17:57.198Z,58.98
2022-11-12T11:20:48.075Z,58.66
2022-11-12T11:23:48.515Z,59.26
2022-11-12T11:26:40.843Z,59.91
2022-11-12T11:29:45.304Z,60.42
2022-11-12T11:32:49.782Z,60.92
2022-11-12T11:35:44.337Z,62.04
2022-11-12T11:38:36.023Z,60.92
2022-11-12T11:42:12.838Z,59.40
2022-11-12T11:45:03.370Z,58.89
2022-11-12T11:48:02.620Z,59.41
2022-11-12T11:50:59.997Z,59.86
2022-11-12T11:54:01.786Z,60.36
2022-11-12T11:56:47.398Z,60.62
2022-11-12T12:00:01.285Z,61.32
2022-11-12T12:02:58.016Z,60.14
2022-11-12T12:06:06.947Z,58.07
2022-11-12T12:09:03.176Z,57.75
2022-11-12T12:12:01.637Z,58.28
2022-11-12T12:14:56.735Z,58.85
2022-11-12T12:17:51.067Z,59.48
2022-11-12T12:20:39.832Z,59.98
2022-11-12T12:23:41.122Z,60.30
2022-11-12T12:26:40.189Z,60.73
2022-11-12T12:29:55.499Z,59.22
2022-11-12T12:32:45.388Z,57.79
2022-11-12T12:35:40.638Z,57.72
2022-11-12T12:38:38.344Z,57.06
2022-11-12T12:41:29.745Z,57.12
2022-11-12T12:44:15.391Z,59.15
2022-11-12T12:47:00.991Z,57.81
2022-11-12T12:49:47.102Z,56.36
2022-11-12T12:53:05.561Z,54.15
2022-11-12T12:55:52.226Z,52.42
2022-11-12T12:58:41.065Z,52.36
2022-11-12T13:01:31.968Z,52.44
2022-11-12T13:04:17.500Z,52.85
2022-11-12T13:07:06.336Z,53.35
2022-11-12T13:10:43.163Z,53.98
2022-11-12T13:13:32.712Z,54.49
2022-11-12T13:16:58.898Z,54.93
2022-11-12T13:19:53.534Z,55.85
2022-11-12T13:22:39.155Z,56.07
2022-11-12T13:25:28.100Z,56.42
2022-11-12T13:28:14.485Z,56.30
2022-11-12T13:41:09.660Z,57.53
2022-11-12T13:43:55.557Z,57.62
2022-11-12T13:46:42.440Z,58.04
2022-11-12T13:49:28.096Z,58.28
2022-11-12T13:52:15.049Z,58.54
2022-11-12T13:55:07.393Z,59.36
2022-11-12T13:57:53.973Z,57.96
2022-11-12T14:00:40.105Z,56.24
2022-11-12T14:03:29.067Z,55.61
2022-11-12T14:20:31.653Z,58.11
2022-11-12T14:23:24.858Z,58.81
2022-11-12T14:26:12.274Z,59.05
2022-11-12T14:28:59.384Z,59.47
2022-11-12T14:31:46.048Z,58.63
2022-11-12T14:34:34.620Z,56.93
2022-11-12T14:37:39.882Z,56.54
2022-11-12T14:40:31.257Z,56.83
2022-11-12T14:43:28.262Z,57.35
2022-11-12T14:46:29.452Z,57.94
2022-11-12T14:49:23.030Z,58.37
2022-11-12T14:52:31.943Z,59.07
2022-11-12T14:55:21.713Z,59.71
2022-11-12T14:58:07.267Z,60.16
2022-11-12T15:00:53.595Z,59.60
2022-11-12T15:03:40.059Z,58.21
2022-11-12T15:06:30.887Z,58.14
2022-11-12T15:09:21.962Z,58.77
2022-11-12T15:12:11.225Z,59.41
2022-11-12T16:11:31.640Z,61.01
2022-11-12T16:14:19.809Z,61.04
2022-11-12T16:17:13.756Z,61.19
2022-11-12T16:20:00.787Z,61.78
2022-11-12T16:22:50.463Z,62.42
2022-11-12T16:25:38.087Z,63.15
2022-11-12T16:28:23.476Z,64.19
2022-11-12T16:31:09.066Z,63.72
2022-11-12T16:33:54.067Z,62.10
2022-11-12T16:36:40.582Z,62.03
2022-11-12T16:39:25.593Z,62.08
2022-11-12T16:42:11.361Z,63.11
2022-11-12T16:44:56.424Z,63.58
2022-11-12T16:47:44.354Z,64.45
2022-11-12T16:50:29.509Z,63.69
2022-11-12T16:53:14.805Z,62.53
2022-11-12T16:55:59.633Z,62.14
2022-11-12T16:58:46.720Z,62.46
2022-11-12T17:01:32.367Z,63.16
2022-11-12T17:04:17.340Z,63.73
2022-11-12T17:07:05.013Z,64.54
2022-11-12T17:09:52.278Z,64.22
2022-11-12T17:12:37.804Z,62.87
2022-11-12T17:15:23.043Z,62.38
2022-11-12T17:18:09.701Z,62.94
2022-11-12T17:20:56.923Z,63.78
2022-11-12T17:23:42.853Z,64.94
2022-11-12T17:26:28.298Z,65.12
2022-11-12T17:29:13.231Z,64.77
2022-11-12T17:31:58.861Z,63.58
2022-11-12T17:34:44.666Z,63.24
2022-11-12T17:37:30.114Z,63.48
2022-11-12T17:40:15.413Z,63.96
2022-11-12T17:43:00.405Z,64.83
2022-11-12T17:45:49.566Z,65.83
2022-11-12T17:48:35.822Z,65.36
2022-11-12T17:51:22.272Z,63.86
2022-11-12T17:54:08.060Z,63.30
2022-11-12T17:56:52.852Z,63.32
2022-11-12T17:59:38.819Z,63.51
2022-11-12T18:02:23.681Z,64.42
2022-11-12T18:05:10.819Z,65.49
2022-11-12T18:07:56.078Z,65.42
2022-11-12T18:10:42.210Z,64.14
2022-11-12T18:13:27.637Z,63.78
2022-11-12T18:16:19.525Z,64.20
2022-11-12T18:19:05.272Z,64.92
2022-11-12T18:21:52.177Z,65.48
2022-11-12T18:24:37.492Z,66.12
2022-11-12T18:27:22.211Z,66.13
2022-11-12T18:30:08.396Z,64.59
2022-11-12T18:32:53.716Z,64.41
2022-11-12T18:35:40.584Z,64.47
2022-11-12T18:38:25.595Z,65.01
2022-11-12T18:41:14.464Z,65.57
2022-11-12T18:44:00.216Z,67.13
2022-11-12T18:46:45.689Z,66.46
2022-11-12T18:49:30.606Z,64.90
2022-11-12T18:52:16.561Z,64.47
2022-11-12T18:55:03.343Z,64.51
2022-11-12T18:57:48.437Z,65.35
2022-11-12T19:00:34.517Z,65.80
2022-11-12T19:03:19.884Z,66.55
2022-11-12T19:06:05.984Z,66.03
2022-11-12T19:08:51.101Z,64.54
2022-11-12T19:11:35.882Z,64.31
2022-11-12T19:14:23.276Z,64.52
2022-11-12T19:17:08.306Z,65.45
2022-11-12T19:19:53.504Z,66.25
2022-11-12T19:22:39.192Z,66.84
2022-11-12T19:25:25.013Z,66.29
2022-11-12T19:28:10.325Z,64.83
2022-11-12T19:30:55.517Z,64.25
2022-11-12T19:33:40.700Z,64.63
2022-11-12T19:36:26.891Z,65.33
2022-11-12T19:39:11.647Z,65.77
2022-11-12T19:41:56.943Z,66.65
2022-11-12T19:44:41.627Z,65.86
2022-11-12T19:47:26.554Z,64.71
2022-11-12T19:50:11.290Z,64.06
2022-11-12T19:52:56.613Z,64.30
2022-11-12T19:55:42.205Z,65.21
2022-11-12T19:58:27.772Z,65.64
2022-11-12T20:01:13.929Z,66.49
2022-11-12T20:03:58.957Z,66.10
2022-11-12T20:06:44.146Z,64.73
2022-11-12T20:09:29.314Z,64.29
2022-11-12T20:12:14.291Z,64.40
2022-11-12T20:14:59.405Z,64.82
2022-11-12T20:17:45.040Z,65.26
2022-11-12T20:20:30.444Z,66.67
2022-11-12T20:23:15.950Z,66.04
2022-11-12T20:26:06.235Z,64.52
2022-11-12T20:28:51.669Z,64.42
2022-11-12T20:31:37.434Z,64.70
2022-11-12T20:34:22.152Z,65.26
2022-11-12T20:37:07.152Z,65.93
2022-11-12T20:39:53.644Z,66.37
2022-11-12T20:42:40.640Z,66.03
2022-11-12T20:45:26.524Z,64.73
2022-11-12T20:48:11.556Z,64.71
2022-11-12T20:51:23.267Z,65.26
2022-11-12T20:54:10.001Z,65.94
2022-11-12T20:56:55.501Z,66.36
2022-11-12T20:59:40.631Z,67.31
2022-11-12T21:02:26.079Z,66.97
2022-11-12T21:05:10.920Z,65.43
2022-11-12T21:07:56.739Z,65.23
2022-11-12T21:10:41.786Z,65.72
2022-11-12T21:13:26.737Z,66.12
2022-11-12T21:16:13.023Z,67.02
2022-11-12T21:19:01.375Z,67.42
2022-11-12T21:21:46.778Z,66.54
2022-11-12T21:24:31.489Z,65.34
2022-11-12T21:27:16.958Z,65.06
2022-11-12T21:30:02.166Z,65.20
2022-11-12T21:32:47.066Z,65.42
2022-11-12T21:35:32.349Z,66.72
2022-11-12T21:38:17.601Z,66.57
2022-11-12T21:41:14.673Z,65.23
2022-11-12T21:43:59.851Z,65.24
2022-11-12T21:46:44.806Z,65.54
2022-11-12T21:49:30.277Z,66.28
2022-11-12T21:52:15.462Z,67.03
2022-11-12T21:55:00.446Z,66.86
2022-11-12T21:57:45.530Z,65.22
2022-11-12T22:00:46.086Z,64.04
2022-11-12T22:03:31.457Z,64.38
2022-11-12T22:06:17.748Z,65.26
2022-11-12T22:09:03.056Z,66.38
2022-11-12T22:11:48.233Z,66.03
2022-11-12T22:14:33.146Z,64.80
2022-11-12T22:17:18.613Z,64.46
2022-11-12T22:20:05.564Z,65.11
2022-11-12T22:22:51.089Z,65.27
2022-11-12T22:25:36.395Z,66.34
2022-11-12T22:28:21.432Z,66.22
2022-11-12T22:31:11.350Z,65.05
2022-11-12T22:33:57.596Z,65.37
2022-11-12T22:36:42.869Z,66.00
2022-11-12T22:39:28.061Z,66.34
2022-11-12T22:42:13.650Z,67.58
2022-11-12T22:45:00.499Z,67.26
2022-11-12T22:47:45.539Z,65.55
2022-11-12T22:50:31.551Z,65.35
2022-11-12T22:53:16.372Z,65.16
2022-11-12T22:56:06.253Z,65.80
2022-11-12T22:58:51.381Z,66.46
2022-11-12T23:01:37.255Z,65.93
2022-11-12T23:04:22.916Z,64.66
2022-11-12T23:07:08.119Z,64.54
2022-11-12T23:09:54.489Z,64.91
2022-11-12T23:12:40.046Z,65.13
2022-11-12T23:15:28.130Z,65.75
2022-11-12T23:18:13.089Z,66.96
2022-11-12T23:21:05.992Z,66.84
2022-11-12T23:23:50.883Z,65.60
2022-11-12T23:26:36.502Z,65.11
2022-11-12T23:29:21.525Z,65.68
2022-11-12T23:32:06.627Z,66.45
2022-11-12T23:34:53.014Z,66.40
2022-11-12T23:37:38.125Z,66.98
2022-11-12T23:40:29.703Z,66.82
2022-11-12T23:43:15.747Z,65.14
2022-11-12T23:46:00.656Z,64.54
2022-11-12T23:48:46.261Z,64.50
2022-11-12T23:51:33.241Z,65.17
2022-11-12T23:54:18.552Z,65.84
2022-11-12T23:57:03.621Z,65.71
2022-11-12T23:59:51.877Z,64.24
